createdAt,value
2023-06-23T00:00:14.369Z,99819.86
2023-06-23T00:05:41.145Z,99796.80
2023-06-23T00:10:49.349Z,99792.91
2023-06-23T00:15:58.753Z,99799.98
2023-06-23T00:21:06.905Z,99799.80
2023-06-23T00:26:14.592Z,99802.06
2023-06-23T00:31:21.579Z,99829.25
2023-06-23T00:36:31.815Z,99818.83
2023-06-23T00:41:40.666Z,99795.73
2023-06-23T00:46:48.475Z,99762.83
2023-06-23T00:51:55.623Z,99744.96
2023-06-23T00:57:02.474Z,99735.75
2023-06-23T01:02:09.408Z,99696.31
2023-06-23T01:07:27.363Z,99684.59
2023-06-23T01:12:40.950Z,99704.84
2023-06-23T01:17:52.928Z,99733.84
2023-06-23T01:23:17.905Z,99760.72
2023-06-23T01:28:44.503Z,99777.22
2023-06-23T01:33:58.190Z,99792.29
2023-06-23T01:39:07.717Z,99795.22
2023-06-23T01:44:18.794Z,99777.30
2023-06-23T01:49:29.828Z,99725.14
2023-06-23T01:54:39.826Z,99674.55
2023-06-23T01:59:51.696Z,99669.71
2023-06-23T02:05:01.437Z,99769.90
2023-06-23T02:10:10.540Z,100069.96
2023-06-23T02:15:22.315Z,100047.29
2023-06-23T02:20:31.507Z,99929.80
2023-06-23T02:25:40.766Z,101953.91
2023-06-23T02:30:48.513Z,99856.83
2023-06-23T02:35:59.339Z,39943.79
2023-06-23T02:41:11.118Z,-1.00
2023-06-23T02:46:22.308Z,-1.00
2023-06-23T02:51:30.867Z,-1.00
2023-06-23T02:56:44.594Z,-1.00
2023-06-23T03:01:54.679Z,-1.00
2023-06-23T03:07:01.896Z,-1.00
2023-06-23T03:12:12.026Z,-1.00
2023-06-23T03:17:24.476Z,-1.00
2023-06-23T03:22:40.156Z,-1.00
2023-06-23T03:27:50.278Z,-1.00
2023-06-23T03:33:03.425Z,-1.00
2023-06-23T03:38:16.761Z,-1.00
2023-06-23T03:43:30.482Z,-1.00
2023-06-23T03:48:41.208Z,-1.00
2023-06-23T03:53:49.712Z,-1.00
2023-06-23T03:58:58.134Z,-1.00
2023-06-23T04:04:07.990Z,19948.38
2023-06-23T04:09:17.242Z,99755.33
2023-06-23T04:14:26.740Z,99775.04
2023-06-23T04:19:35.775Z,99780.13
2023-06-23T04:24:43.785Z,99781.61
2023-06-23T04:29:53.178Z,99762.11
2023-06-23T04:35:00.060Z,99766.63
2023-06-23T04:40:23.597Z,99755.85
2023-06-23T04:45:33.038Z,99734.38
2023-06-23T04:50:42.864Z,99733.32
2023-06-23T04:55:55.462Z,99746.48
2023-06-23T05:01:04.785Z,99744.96
2023-06-23T05:06:13.727Z,99736.86
2023-06-23T05:11:22.819Z,99744.89
2023-06-23T05:16:30.484Z,99742.93
2023-06-23T05:21:38.864Z,99746.12
2023-06-23T05:26:47.335Z,99747.37
2023-06-23T05:31:55.242Z,99752.65
2023-06-23T05:37:04.438Z,79800.34
2023-06-23T05:42:11.674Z,-1.00
2023-06-23T05:47:23.938Z,-1.00
2023-06-23T05:52:35.811Z,-1.00
2023-06-23T05:57:44.878Z,-1.00
2023-06-23T06:02:54.723Z,-1.00
2023-06-23T06:08:02.983Z,-1.00
2023-06-23T06:13:12.536Z,-1.00
2023-06-23T06:18:21.092Z,-1.00
2023-06-23T06:23:28.309Z,-1.00
2023-06-23T06:28:37.060Z,-1.00
2023-06-23T06:33:46.467Z,-1.00
2023-06-23T06:38:55.429Z,-1.00
2023-06-23T06:44:04.111Z,-1.00
2023-06-23T06:49:12.998Z,-1.00
2023-06-23T06:54:20.933Z,-1.00
2023-06-23T06:59:27.973Z,-1.00
2023-06-23T07:04:35.742Z,-1.00
2023-06-23T07:09:42.745Z,-1.00
2023-06-23T07:14:50.319Z,-1.00
2023-06-23T07:19:57.357Z,-1.00
2023-06-23T07:25:04.321Z,-1.00
2023-06-23T07:30:12.719Z,-1.00
2023-06-23T07:35:19.847Z,-1.00
2023-06-23T07:40:26.689Z,-1.00
2023-06-23T07:45:33.709Z,-1.00
2023-06-23T07:50:40.488Z,-1.00
2023-06-23T07:55:47.408Z,-1.00
2023-06-23T08:00:55.212Z,-1.00
2023-06-23T08:06:02.194Z,-1.00
2023-06-23T08:11:09.208Z,-1.00
2023-06-23T08:16:16.134Z,-1.00
2023-06-23T08:21:23.311Z,-1.00
2023-06-23T08:26:30.404Z,-1.00
2023-06-23T08:31:37.385Z,-1.00
2023-06-23T08:36:44.286Z,-1.00
2023-06-23T08:41:52.529Z,-1.00
2023-06-23T08:47:06.390Z,-1.00
2023-06-23T08:52:15.533Z,-1.00
2023-06-23T08:57:22.926Z,-1.00
2023-06-23T09:02:29.854Z,-1.00
2023-06-23T09:07:37.049Z,-1.00
2023-06-23T09:13:02.314Z,-1.00
2023-06-23T09:18:14.548Z,-1.00
2023-06-23T09:23:22.875Z,-1.00
2023-06-23T09:28:31.384Z,-1.00
2023-06-23T09:33:46.751Z,-1.00
2023-06-23T09:38:54.071Z,-1.00
2023-06-23T09:44:01.061Z,-1.00
2023-06-23T09:49:10.534Z,-1.00
2023-06-23T09:54:16.447Z,-1.00
2023-06-23T09:59:24.315Z,-1.00
2023-06-23T10:04:34.416Z,-1.00
2023-06-23T10:09:53.223Z,-1.00
2023-06-23T10:15:04.347Z,-1.00
2023-06-23T10:20:13.790Z,-1.00
2023-06-23T10:25:20.992Z,-1.00
2023-06-23T10:30:31.414Z,-1.00
2023-06-23T10:35:40.857Z,-1.00
2023-06-23T10:40:53.256Z,-1.00
2023-06-23T10:46:01.244Z,-1.00
2023-06-23T10:51:08.694Z,-1.00
2023-06-23T10:56:33.659Z,-1.00
2023-06-23T11:07:13.833Z,99953.89
2023-06-23T11:12:34.754Z,99948.70
2023-06-23T11:17:46.777Z,99964.23
2023-06-23T11:23:00.415Z,99975.35
2023-06-23T11:28:29.854Z,99973.66
2023-06-23T11:33:39.009Z,99981.02
2023-06-23T11:38:46.992Z,99984.91
2023-06-23T11:43:57.890Z,99976.27
2023-06-23T11:49:13.572Z,99970.56
2023-06-23T11:54:22.759Z,99954.83
2023-06-23T11:59:35.820Z,99960.02
2023-06-23T12:04:44.720Z,99968.33
2023-06-23T12:09:57.688Z,99973.92
2023-06-23T12:15:04.922Z,99985.13
2023-06-23T12:20:17.563Z,99980.38
2023-06-23T12:25:31.936Z,99970.70
2023-06-23T12:30:44.412Z,99963.85
2023-06-23T12:36:01.767Z,99963.23
2023-06-23T12:41:25.193Z,99962.73
2023-06-23T12:46:33.404Z,99968.98
2023-06-23T12:51:41.242Z,99965.52
2023-06-23T12:56:48.269Z,99960.45
2023-06-23T13:01:55.193Z,99972.33
2023-06-23T13:07:02.114Z,99962.23
2023-06-23T13:12:10.133Z,99963.48
2023-06-23T13:17:16.994Z,99957.66
2023-06-23T13:22:23.966Z,99962.93
2023-06-23T13:27:32.688Z,99957.86
2023-06-23T13:32:39.499Z,99955.13
2023-06-23T13:37:46.467Z,99950.11
2023-06-23T13:42:53.527Z,99959.73
2023-06-23T13:48:00.549Z,99990.15
2023-06-23T13:53:07.452Z,99999.34
2023-06-23T13:58:14.343Z,100005.55
2023-06-23T14:03:21.326Z,99997.13
2023-06-23T14:08:28.476Z,99987.73
2023-06-23T14:13:35.337Z,99987.55
2023-06-23T14:18:42.383Z,99987.17
2023-06-23T14:23:49.511Z,99990.76
2023-06-23T14:28:56.421Z,99989.77
2023-06-23T14:34:05.150Z,100004.29
2023-06-23T14:39:13.047Z,100005.05
2023-06-23T14:44:19.978Z,99998.82
2023-06-23T14:49:27.032Z,99996.40
2023-06-23T14:54:33.973Z,99988.32
2023-06-23T14:59:40.883Z,100002.11
2023-06-23T15:04:47.759Z,100092.74
2023-06-23T15:09:55.024Z,100137.39
2023-06-23T15:15:02.599Z,100156.05
2023-06-23T15:20:11.488Z,100177.11
2023-06-23T15:25:18.637Z,100175.30
2023-06-23T15:30:25.693Z,100154.42
2023-06-23T15:35:32.929Z,100156.84
2023-06-23T15:40:41.379Z,100147.30
2023-06-23T15:45:48.693Z,100147.99
2023-06-23T15:50:56.418Z,100134.99
2023-06-23T15:56:04.733Z,100135.52
2023-06-23T16:01:11.984Z,100117.33
2023-06-23T16:06:19.012Z,100116.39
2023-06-23T16:11:26.453Z,100117.73
2023-06-23T16:16:33.536Z,100119.95
2023-06-23T16:21:41.715Z,100116.72
2023-06-23T16:26:48.616Z,100109.81
2023-06-23T16:31:55.508Z,100102.89
2023-06-23T16:37:02.547Z,100106.95
2023-06-23T16:42:10.757Z,100097.39
2023-06-23T16:47:17.761Z,100093.69
2023-06-23T16:52:24.894Z,100096.88
2023-06-23T16:57:32.256Z,100112.00
2023-06-23T17:02:39.234Z,100117.23
2023-06-23T17:07:46.542Z,100138.00
2023-06-23T17:12:53.782Z,100151.98
2023-06-23T17:18:00.796Z,100156.48
2023-06-23T17:23:08.193Z,100154.92
2023-06-23T17:28:15.258Z,100159.77
2023-06-23T17:33:22.534Z,100160.26
2023-06-23T17:38:30.636Z,100165.05
2023-06-23T17:43:37.773Z,100174.44
2023-06-23T17:48:45.314Z,100171.20
2023-06-23T17:53:52.586Z,100173.98
2023-06-23T17:59:00.079Z,100171.09
2023-06-23T18:04:07.607Z,100167.76
2023-06-23T18:09:14.843Z,100161.86
2023-06-23T18:14:22.229Z,100161.77
2023-06-23T18:19:29.085Z,100169.95
2023-06-23T18:24:36.008Z,100178.20
2023-06-23T18:29:42.933Z,100184.02
2023-06-23T18:34:50.055Z,100195.02
2023-06-23T18:39:58.083Z,100208.96
2023-06-23T18:45:05.532Z,100224.88
2023-06-23T18:50:13.515Z,100238.27
2023-06-23T18:55:20.453Z,100241.54
2023-06-23T19:00:28.672Z,100240.02
2023-06-23T19:05:37.376Z,100252.71
2023-06-23T19:10:45.097Z,100273.04
2023-06-23T19:15:52.237Z,100281.06
2023-06-23T19:20:59.256Z,100288.34
2023-06-23T19:26:06.434Z,100288.58
2023-06-23T19:31:13.456Z,100289.10
2023-06-23T19:36:20.403Z,100287.42
2023-06-23T19:41:27.261Z,100289.57
2023-06-23T19:46:34.081Z,100291.42
2023-06-23T19:51:41.113Z,100282.77
2023-06-23T19:56:51.483Z,100289.86
2023-06-23T20:01:59.037Z,100283.75
2023-06-23T20:07:07.487Z,100276.27
2023-06-23T20:12:14.654Z,100270.85
2023-06-23T20:17:21.754Z,100284.90
2023-06-23T20:22:28.749Z,100296.77
2023-06-23T20:27:35.735Z,100301.79
2023-06-23T20:32:42.728Z,100322.61
2023-06-23T20:37:49.778Z,100322.77
2023-06-23T20:42:56.910Z,100326.90
2023-06-23T20:49:00.011Z,100337.57
2023-06-23T20:54:07.010Z,100348.59
2023-06-23T20:59:14.022Z,100343.82
2023-06-23T21:04:21.776Z,100339.44
2023-06-23T21:09:29.402Z,100337.69
2023-06-23T21:14:36.294Z,100347.19
2023-06-23T21:19:43.331Z,100357.47
2023-06-23T21:24:50.207Z,100355.44
2023-06-23T21:29:57.122Z,100359.05
2023-06-23T21:35:04.038Z,100369.48
2023-06-23T21:40:15.883Z,100371.98
2023-06-23T21:45:24.905Z,100373.52
2023-06-23T21:50:32.262Z,100373.36
2023-06-23T21:55:39.563Z,100375.67
2023-06-23T22:00:46.500Z,100386.39
2023-06-23T22:05:53.412Z,100398.14
2023-06-23T22:11:00.743Z,100403.31
2023-06-23T22:16:08.128Z,100409.66
2023-06-23T22:21:15.096Z,100417.55
2023-06-23T22:26:22.108Z,100421.03
2023-06-23T22:31:29.772Z,100425.64
2023-06-23T22:36:37.325Z,100427.84
2023-06-23T22:41:44.364Z,100431.17
2023-06-23T22:46:51.728Z,100444.02
2023-06-23T22:51:58.709Z,100445.05
2023-06-23T22:57:05.852Z,100443.98
2023-06-23T23:02:12.925Z,100449.91
2023-06-23T23:07:20.082Z,100446.41
2023-06-23T23:12:27.174Z,100442.58
2023-06-23T23:17:34.345Z,100442.02
2023-06-23T23:22:41.566Z,100444.53
2023-06-23T23:27:51.947Z,100449.48
2023-06-23T23:32:57.465Z,100451.27
2023-06-23T23:38:04.280Z,100447.59
2023-06-23T23:43:11.257Z,100450.59
2023-06-23T23:48:18.590Z,100457.66
2023-06-23T23:53:25.597Z,100458.02
2023-06-23T23:58:32.449Z,100462.55
